createdAt,value
2023-12-21T00:01:33.077Z,-0.10
2023-12-21T00:04:00.046Z,-0.10
2023-12-21T00:06:27.136Z,0.00
2023-12-21T00:08:54.103Z,0.00
2023-12-21T00:11:20.946Z,0.00
2023-12-21T00:13:47.804Z,0.00
2023-12-21T00:16:15.070Z,-0.10
2023-12-21T00:18:41.943Z,0.00
2023-12-21T00:21:08.829Z,0.00
2023-12-21T00:23:35.861Z,0.00
2023-12-21T00:26:02.707Z,-0.10
2023-12-21T00:28:29.569Z,-0.10
2023-12-21T00:30:56.717Z,0.00
2023-12-21T00:33:23.617Z,-0.20
2023-12-21T00:35:50.463Z,-0.10
2023-12-21T00:38:17.302Z,-0.10
2023-12-21T00:40:44.128Z,0.00
2023-12-21T00:43:11.022Z,0.00
2023-12-21T00:45:37.823Z,0.00
2023-12-21T00:48:08.032Z,0.10
2023-12-21T00:50:34.850Z,0.00
2023-12-21T00:53:01.829Z,-0.20
2023-12-21T00:55:28.722Z,-0.40
2023-12-21T00:57:56.018Z,-0.20
2023-12-21T01:00:22.919Z,-0.40
2023-12-21T01:02:49.942Z,-0.60
2023-12-21T01:05:17.019Z,-0.40
2023-12-21T01:07:43.970Z,-0.40
2023-12-21T01:10:11.077Z,-0.40
2023-12-21T01:12:37.912Z,-0.20
2023-12-21T01:15:04.963Z,-0.20
2023-12-21T01:17:31.842Z,-0.60
2023-12-21T01:19:58.713Z,-0.50
2023-12-21T01:22:25.635Z,-0.40
2023-12-21T01:24:52.462Z,-0.60
2023-12-21T01:27:26.608Z,-0.60
2023-12-21T01:29:59.198Z,-0.50
2023-12-21T01:32:26.483Z,-0.40
2023-12-21T01:34:53.749Z,-0.40
2023-12-21T01:37:20.746Z,-0.50
2023-12-21T01:39:47.681Z,-0.50
2023-12-21T01:42:14.575Z,-0.80
2023-12-21T01:44:41.365Z,-0.60
2023-12-21T01:47:08.283Z,-0.50
2023-12-21T01:49:35.637Z,-0.70
2023-12-21T01:52:02.971Z,-0.80
2023-12-21T01:54:29.951Z,-0.80
2023-12-21T01:56:56.763Z,-0.60
2023-12-21T01:59:23.716Z,-0.50
2023-12-21T02:01:50.587Z,-0.70
2023-12-21T02:04:17.521Z,-0.60
2023-12-21T02:06:44.397Z,-0.40
2023-12-21T02:09:11.261Z,-0.40
2023-12-21T02:11:38.101Z,-0.50
2023-12-21T02:14:05.070Z,-0.80
2023-12-21T02:16:35.924Z,-0.70
2023-12-21T02:19:03.208Z,-0.70
2023-12-21T02:21:30.812Z,-0.70
2023-12-21T02:23:58.501Z,-0.70
2023-12-21T02:26:26.152Z,-0.70
2023-12-21T02:28:53.048Z,-0.70
2023-12-21T02:31:19.933Z,-0.60
2023-12-21T02:33:46.958Z,-0.70
2023-12-21T02:36:13.814Z,-1.10
2023-12-21T02:38:41.076Z,-1.10
2023-12-21T02:41:07.950Z,-1.10
2023-12-21T02:43:34.857Z,-1.00
2023-12-21T02:46:01.956Z,-1.10
2023-12-21T02:48:28.919Z,-0.90
2023-12-21T02:50:55.782Z,-0.90
2023-12-21T02:53:22.600Z,-1.10
2023-12-21T02:55:49.433Z,-1.00
2023-12-21T02:58:16.298Z,-1.00
2023-12-21T03:00:43.155Z,-1.00
2023-12-21T03:03:10.090Z,-1.00
2023-12-21T03:05:37.860Z,-1.00
2023-12-21T03:08:05.107Z,-1.00
2023-12-21T03:10:32.100Z,-0.90
2023-12-21T03:12:59.379Z,-0.90
2023-12-21T03:15:26.299Z,-0.70
2023-12-21T03:17:53.729Z,-0.70
2023-12-21T03:20:20.735Z,-0.80
2023-12-21T03:22:48.018Z,-0.80
2023-12-21T03:25:15.211Z,-0.70
2023-12-21T03:27:42.111Z,-0.70
2023-12-21T03:30:09.239Z,-0.70
2023-12-21T03:32:37.988Z,-0.70
2023-12-21T03:35:05.168Z,-0.60
2023-12-21T03:37:32.783Z,-0.60
2023-12-21T03:39:59.976Z,-0.60
2023-12-21T03:42:27.040Z,-0.60
2023-12-21T03:44:53.974Z,-0.70
2023-12-21T03:47:20.958Z,-0.70
2023-12-21T03:49:47.872Z,-0.50
2023-12-21T03:52:14.800Z,-0.50
2023-12-21T03:54:42.030Z,-0.50
2023-12-21T03:57:08.881Z,-0.50
2023-12-21T03:59:57.619Z,-0.40
2023-12-21T04:02:24.483Z,-0.60
2023-12-21T04:04:51.268Z,-0.50
2023-12-21T04:07:18.160Z,-0.60
2023-12-21T04:09:44.996Z,-0.50
2023-12-21T04:12:11.798Z,-0.50
2023-12-21T04:14:38.658Z,-0.60
2023-12-21T04:20:33.747Z,-0.50
2023-12-21T04:23:00.560Z,-0.60
2023-12-21T04:25:27.332Z,-0.40
2023-12-21T04:27:54.132Z,-0.40
2023-12-21T04:30:21.594Z,-0.50
2023-12-21T04:32:48.836Z,-0.30
2023-12-21T04:35:15.804Z,-0.30
2023-12-21T04:37:42.645Z,-0.40
2023-12-21T04:40:10.093Z,-0.40
2023-12-21T04:42:36.980Z,-0.50
2023-12-21T04:45:04.044Z,-0.40
2023-12-21T04:47:30.886Z,-0.50
2023-12-21T04:49:57.819Z,-0.50
2023-12-21T04:52:24.750Z,-0.50
2023-12-21T04:54:51.615Z,-0.50
2023-12-21T04:57:21.149Z,-0.60
2023-12-21T04:59:51.773Z,-0.70
2023-12-21T05:02:18.606Z,-0.70
2023-12-21T05:04:45.450Z,-0.80
2023-12-21T05:07:12.668Z,-0.70
2023-12-21T05:09:39.555Z,-0.70
2023-12-21T05:12:06.758Z,-0.90
2023-12-21T05:14:34.095Z,-0.90
2023-12-21T05:17:01.156Z,-0.90
2023-12-21T05:19:28.086Z,-1.10
2023-12-21T05:21:58.390Z,-1.00
2023-12-21T05:24:25.196Z,-0.90
2023-12-21T05:26:52.041Z,-0.90
2023-12-21T05:29:18.788Z,-1.30
2023-12-21T05:31:45.769Z,-1.40
2023-12-21T05:34:12.805Z,-1.30
2023-12-21T05:36:39.742Z,-1.40
2023-12-21T05:39:17.449Z,-1.40
2023-12-21T05:41:45.902Z,-1.30
2023-12-21T05:44:12.946Z,-1.30
2023-12-21T05:46:41.045Z,-1.40
2023-12-21T05:49:08.090Z,-1.60
2023-12-21T05:51:34.921Z,-1.80
2023-12-21T05:54:01.768Z,-2.00
2023-12-21T05:56:28.805Z,-1.80
2023-12-21T05:58:58.634Z,-1.70
2023-12-21T06:01:25.484Z,-1.70
2023-12-21T06:03:52.431Z,-1.70
2023-12-21T06:06:19.427Z,-1.60
2023-12-21T06:08:46.777Z,-1.80
2023-12-21T06:11:13.717Z,-1.70
2023-12-21T06:13:40.855Z,-1.70
2023-12-21T06:16:17.526Z,-1.70
2023-12-21T06:22:21.130Z,-2.10
2023-12-21T06:28:10.493Z,-2.10
2023-12-21T06:30:37.546Z,-1.90
2023-12-21T06:33:04.726Z,-1.90
2023-12-21T06:35:31.462Z,-1.90
2023-12-21T06:37:58.688Z,-1.80
2023-12-21T06:40:25.780Z,-1.90
2023-12-21T06:42:52.582Z,-2.00
2023-12-21T06:45:19.490Z,-1.90
2023-12-21T06:47:46.993Z,-2.10
2023-12-21T06:50:13.946Z,-2.10
2023-12-21T06:52:40.831Z,-2.20
2023-12-21T06:55:08.553Z,-2.20
2023-12-21T06:57:35.575Z,-2.10
2023-12-21T07:00:02.511Z,-1.90
2023-12-21T07:02:32.285Z,-2.20
2023-12-21T07:04:59.689Z,-2.30
2023-12-21T07:07:26.577Z,-2.10
2023-12-21T07:09:53.405Z,-2.10
2023-12-21T07:12:21.518Z,-2.10
2023-12-21T07:14:48.288Z,-2.10
2023-12-21T07:17:15.029Z,-2.10
2023-12-21T07:19:42.752Z,-2.20
2023-12-21T07:22:09.590Z,-2.10
2023-12-21T07:24:37.119Z,-2.30
2023-12-21T07:27:04.829Z,-2.20
2023-12-21T07:29:32.137Z,-2.00
2023-12-21T07:31:58.846Z,-1.90
2023-12-21T07:34:25.666Z,-1.80
2023-12-21T07:36:52.456Z,-1.90
2023-12-21T07:39:21.088Z,-2.20
2023-12-21T07:41:49.344Z,-2.20
2023-12-21T07:44:16.065Z,-2.10
2023-12-21T07:46:42.867Z,-1.80
2023-12-21T07:49:09.682Z,-1.80
2023-12-21T07:51:36.444Z,-1.70
2023-12-21T07:54:03.243Z,-1.60
2023-12-21T07:56:30.047Z,-1.70
2023-12-21T07:58:56.872Z,-1.80
2023-12-21T08:01:23.661Z,-1.70
2023-12-21T08:03:50.469Z,-1.80
2023-12-21T08:06:21.161Z,-1.70
2023-12-21T08:08:56.741Z,-1.70
2023-12-21T08:11:26.161Z,-1.70
2023-12-21T08:14:02.133Z,-1.60
2023-12-21T08:16:29.145Z,-1.60
2023-12-21T08:18:57.203Z,-1.60
2023-12-21T08:21:33.128Z,-1.40
2023-12-21T08:24:02.851Z,-1.30
2023-12-21T08:26:29.586Z,-1.30
2023-12-21T08:28:56.444Z,-0.80
2023-12-21T08:31:23.909Z,-0.50
2023-12-21T08:33:50.724Z,-0.50
2023-12-21T08:36:17.438Z,-0.80
2023-12-21T08:38:44.224Z,-0.60
2023-12-21T08:41:11.060Z,-0.40
2023-12-21T08:43:37.989Z,-0.30
2023-12-21T08:46:04.941Z,-0.10
2023-12-21T08:48:31.812Z,-0.10
2023-12-21T08:50:58.492Z,-0.10
2023-12-21T08:53:25.202Z,-0.10
2023-12-21T08:55:52.087Z,0.10
2023-12-21T08:58:18.898Z,0.30
2023-12-21T09:00:45.934Z,0.50
2023-12-21T09:03:12.820Z,0.40
2023-12-21T09:05:39.638Z,0.40
2023-12-21T09:08:07.356Z,0.40
2023-12-21T09:10:34.059Z,0.40
2023-12-21T09:13:00.937Z,0.50
2023-12-21T09:15:30.065Z,0.70
2023-12-21T09:17:57.043Z,0.70
2023-12-21T09:20:23.934Z,0.70
2023-12-21T09:22:51.226Z,0.70
2023-12-21T09:25:19.939Z,0.80
2023-12-21T09:27:47.251Z,0.90
2023-12-21T09:30:14.530Z,0.90
2023-12-21T09:32:41.856Z,0.90
2023-12-21T09:35:08.828Z,1.00
2023-12-21T09:37:37.131Z,1.20
2023-12-21T09:40:04.472Z,1.30
2023-12-21T09:42:31.491Z,1.30
2023-12-21T09:44:58.202Z,1.40
2023-12-21T09:47:26.010Z,1.50
2023-12-21T09:49:53.325Z,1.70
2023-12-21T09:52:21.213Z,2.00
2023-12-21T09:54:50.638Z,2.20
2023-12-21T09:57:17.434Z,2.40
2023-12-21T09:59:44.230Z,2.50
2023-12-21T10:02:14.173Z,2.60
2023-12-21T10:04:41.972Z,2.50
2023-12-21T10:07:09.564Z,2.60
2023-12-21T10:09:36.747Z,2.70
2023-12-21T10:12:03.665Z,2.70
2023-12-21T10:14:32.416Z,2.70
2023-12-21T10:17:02.112Z,2.80
2023-12-21T10:19:28.965Z,2.90
2023-12-21T10:21:55.775Z,3.10
2023-12-21T10:24:23.564Z,3.30
2023-12-21T10:26:52.378Z,3.50
2023-12-21T10:29:19.560Z,3.50
2023-12-21T10:31:47.168Z,3.50
2023-12-21T10:34:14.434Z,3.40
2023-12-21T10:36:45.178Z,3.40
2023-12-21T10:39:12.786Z,3.70
2023-12-21T10:41:44.453Z,4.10
2023-12-21T10:44:11.754Z,4.40
2023-12-21T10:46:39.432Z,4.40
2023-12-21T10:49:42.223Z,4.40
2023-12-21T10:52:10.730Z,4.40
2023-12-21T10:54:38.521Z,4.50
2023-12-21T10:57:05.715Z,4.60
2023-12-21T10:59:33.555Z,4.60
2023-12-21T11:02:01.134Z,4.60
2023-12-21T11:04:29.164Z,4.60
2023-12-21T11:06:56.148Z,4.60
2023-12-21T11:09:23.396Z,4.60
2023-12-21T11:11:50.485Z,4.80
2023-12-21T11:14:18.728Z,4.80
2023-12-21T11:16:47.213Z,5.00
2023-12-21T11:19:17.838Z,5.00
2023-12-21T11:21:44.898Z,4.90
2023-12-21T11:24:26.064Z,4.90
2023-12-21T11:26:53.104Z,4.90
2023-12-21T11:29:24.133Z,5.10
2023-12-21T11:31:50.976Z,5.10
2023-12-21T11:34:23.155Z,5.20
2023-12-21T11:36:50.952Z,5.30
2023-12-21T11:39:19.621Z,5.30
2023-12-21T11:41:50.950Z,5.30
2023-12-21T11:44:17.762Z,5.20
2023-12-21T11:46:44.907Z,5.10
2023-12-21T11:49:32.414Z,5.00
2023-12-21T11:52:01.110Z,5.10
2023-12-21T11:54:28.051Z,5.10
2023-12-21T11:56:56.501Z,4.90
2023-12-21T11:59:23.987Z,4.90
2023-12-21T12:01:51.132Z,4.90
2023-12-21T12:04:18.149Z,5.00
2023-12-21T12:06:45.797Z,5.20
2023-12-21T12:09:12.658Z,5.10
2023-12-21T12:11:40.325Z,5.00
2023-12-21T12:14:09.573Z,4.90
2023-12-21T12:16:37.858Z,4.80
2023-12-21T12:19:05.428Z,4.80
2023-12-21T12:21:32.341Z,4.80
2023-12-21T12:23:59.233Z,4.80
2023-12-21T12:26:26.131Z,4.80
2023-12-21T12:28:53.537Z,4.80
2023-12-21T12:31:20.551Z,4.70
2023-12-21T12:33:48.684Z,4.60
2023-12-21T12:36:20.539Z,4.60
2023-12-21T12:38:47.451Z,4.60
2023-12-21T12:41:25.368Z,4.60
2023-12-21T12:43:53.057Z,4.70
2023-12-21T12:46:21.819Z,5.00
2023-12-21T12:48:49.413Z,5.00
2023-12-21T12:51:16.676Z,4.90
2023-12-21T12:53:43.735Z,4.80
2023-12-21T12:56:11.475Z,5.00
2023-12-21T12:58:52.525Z,5.00
2023-12-21T13:01:28.288Z,4.90
2023-12-21T13:03:56.494Z,4.90
2023-12-21T13:06:23.524Z,4.80
2023-12-21T13:08:50.548Z,5.00
2023-12-21T13:11:17.708Z,5.30
2023-12-21T13:13:44.683Z,5.40
2023-12-21T13:16:11.759Z,5.30
2023-12-21T13:18:38.839Z,5.20
2023-12-21T13:21:05.848Z,5.10
2023-12-21T13:23:32.810Z,5.00
2023-12-21T13:25:59.862Z,5.00
2023-12-21T13:28:26.788Z,4.90
2023-12-21T13:30:54.052Z,4.90
2023-12-21T13:33:21.232Z,4.90
2023-12-21T13:35:48.772Z,5.00
2023-12-21T13:38:17.120Z,5.10
2023-12-21T13:40:44.387Z,5.00
2023-12-21T13:43:11.759Z,4.80
2023-12-21T13:45:38.629Z,5.10
2023-12-21T13:48:07.651Z,5.10
2023-12-21T13:50:35.348Z,4.90
2023-12-21T13:53:02.154Z,4.70
2023-12-21T13:55:30.725Z,4.60
2023-12-21T13:57:57.639Z,4.50
2023-12-21T14:00:24.924Z,4.60
2023-12-21T14:02:51.695Z,4.70
2023-12-21T14:05:18.812Z,4.80
2023-12-21T14:07:46.282Z,4.80
2023-12-21T14:10:13.320Z,4.60
2023-12-21T14:12:40.141Z,4.30
2023-12-21T14:15:08.981Z,4.30
2023-12-21T14:17:35.903Z,4.20
2023-12-21T14:20:03.958Z,4.10
2023-12-21T14:22:30.854Z,4.10
2023-12-21T14:24:58.319Z,4.10
2023-12-21T14:27:25.246Z,4.00
2023-12-21T14:29:52.150Z,3.80
2023-12-21T14:32:19.975Z,3.80
2023-12-21T14:38:18.708Z,3.80
2023-12-21T14:40:46.581Z,3.50
2023-12-21T14:43:14.643Z,3.40
2023-12-21T14:45:41.598Z,3.50
2023-12-21T14:48:08.542Z,3.40
2023-12-21T14:50:35.632Z,3.30
2023-12-21T14:53:02.528Z,3.30
2023-12-21T14:55:29.521Z,3.40
2023-12-21T14:57:56.353Z,3.20
2023-12-21T15:00:23.165Z,2.80
2023-12-21T15:02:49.981Z,2.90
2023-12-21T15:05:16.892Z,3.20
2023-12-21T15:07:43.950Z,3.00
2023-12-21T15:10:11.341Z,2.60
2023-12-21T15:12:39.278Z,2.50
2023-12-21T15:15:06.295Z,2.40
2023-12-21T15:17:33.336Z,2.60
2023-12-21T15:20:00.400Z,2.60
2023-12-21T15:22:27.372Z,2.70
2023-12-21T15:24:54.162Z,2.50
2023-12-21T15:27:21.012Z,2.50
2023-12-21T15:29:47.854Z,2.60
2023-12-21T15:32:14.746Z,2.40
2023-12-21T15:34:51.020Z,2.60
2023-12-21T15:37:18.127Z,2.80
2023-12-21T15:39:46.302Z,2.90
2023-12-21T15:42:13.099Z,2.70
2023-12-21T15:44:39.852Z,2.60
2023-12-21T15:47:06.600Z,2.50
2023-12-21T15:49:33.511Z,2.50
2023-12-21T15:52:00.296Z,2.60
2023-12-21T15:54:27.289Z,2.60
2023-12-21T15:56:54.102Z,2.50
2023-12-21T15:59:20.836Z,2.50
2023-12-21T16:01:47.619Z,2.50
2023-12-21T16:04:14.466Z,2.50
2023-12-21T16:06:41.279Z,2.60
2023-12-21T16:09:08.295Z,2.50
2023-12-21T16:11:35.307Z,2.50
2023-12-21T16:14:02.447Z,2.30
2023-12-21T16:16:29.442Z,2.40
2023-12-21T16:18:56.359Z,2.40
2023-12-21T16:21:23.554Z,2.10
2023-12-21T16:23:50.328Z,2.10
2023-12-21T16:26:17.149Z,2.20
2023-12-21T16:28:43.995Z,2.40
2023-12-21T16:31:10.948Z,2.50
2023-12-21T16:33:37.916Z,2.50
2023-12-21T16:36:04.874Z,2.70
2023-12-21T16:38:33.564Z,2.60
2023-12-21T16:41:01.117Z,2.50
2023-12-21T16:43:28.021Z,2.40
2023-12-21T16:45:54.802Z,2.30
2023-12-21T16:48:21.689Z,2.30
2023-12-21T16:50:51.713Z,2.20
2023-12-21T16:53:19.128Z,2.10
2023-12-21T16:55:46.004Z,2.20
2023-12-21T16:58:12.825Z,2.30
2023-12-21T17:00:43.409Z,2.30
2023-12-21T17:03:10.348Z,2.30
2023-12-21T17:05:37.345Z,2.20
2023-12-21T17:08:04.904Z,2.10
2023-12-21T17:10:31.725Z,2.10
2023-12-21T17:12:58.631Z,2.10
2023-12-21T17:15:25.786Z,1.90
2023-12-21T17:17:53.041Z,1.90
2023-12-21T17:20:41.875Z,1.80
2023-12-21T17:23:08.925Z,1.80
2023-12-21T17:26:07.918Z,1.90
2023-12-21T17:28:34.676Z,1.90
2023-12-21T17:31:01.583Z,1.80
2023-12-21T17:33:28.369Z,1.80
2023-12-21T17:35:56.700Z,2.00
2023-12-21T17:38:23.792Z,2.00
2023-12-21T17:40:52.301Z,1.90
2023-12-21T17:43:20.338Z,1.80
2023-12-21T17:45:47.274Z,1.80
2023-12-21T17:48:14.045Z,1.60
2023-12-21T17:50:41.378Z,1.60
2023-12-21T17:53:08.147Z,1.40
2023-12-21T17:55:34.949Z,1.40
2023-12-21T17:58:01.683Z,1.30
2023-12-21T18:00:44.461Z,1.40
2023-12-21T18:03:31.525Z,1.40
2023-12-21T18:05:58.416Z,1.30
2023-12-21T18:08:25.180Z,1.40
2023-12-21T18:10:51.945Z,1.40
2023-12-21T18:13:18.823Z,1.40
2023-12-21T18:15:46.720Z,1.10
2023-12-21T18:18:13.862Z,1.00
2023-12-21T18:20:41.415Z,1.10
2023-12-21T18:23:08.165Z,1.20
2023-12-21T18:25:35.011Z,1.30
2023-12-21T18:28:01.767Z,1.10
2023-12-21T18:30:28.493Z,1.20
2023-12-21T18:32:55.427Z,1.10
2023-12-21T18:35:22.504Z,1.40
2023-12-21T18:37:49.835Z,1.30
2023-12-21T18:40:16.875Z,1.40
2023-12-21T18:42:43.673Z,1.30
2023-12-21T18:45:10.474Z,1.00
2023-12-21T18:47:37.238Z,0.60
2023-12-21T18:50:04.494Z,0.60
2023-12-21T18:52:31.297Z,0.80
2023-12-21T18:54:58.247Z,0.50
2023-12-21T18:57:24.950Z,0.60
2023-12-21T18:59:51.723Z,0.80
2023-12-21T19:02:18.429Z,0.80
2023-12-21T19:04:45.315Z,0.70
2023-12-21T19:07:12.470Z,0.60
2023-12-21T19:09:40.057Z,0.40
2023-12-21T19:12:07.122Z,0.50
2023-12-21T19:14:34.747Z,0.40
2023-12-21T19:17:01.494Z,0.30
2023-12-21T19:19:28.408Z,0.40
2023-12-21T19:21:55.262Z,0.40
2023-12-21T19:24:21.980Z,0.40
2023-12-21T19:26:51.092Z,0.60
2023-12-21T19:29:19.008Z,0.50
2023-12-21T19:31:45.779Z,0.60
2023-12-21T19:34:17.954Z,0.50
2023-12-21T19:36:47.475Z,0.20
2023-12-21T19:39:14.259Z,0.10
2023-12-21T19:41:41.101Z,0.10
2023-12-21T19:44:07.852Z,0.00
2023-12-21T19:46:34.614Z,0.20
2023-12-21T19:49:01.520Z,0.30
2023-12-21T19:51:28.428Z,0.20
2023-12-21T19:53:55.305Z,0.10
2023-12-21T19:56:22.309Z,0.10
2023-12-21T19:58:51.946Z,0.10
2023-12-21T20:01:23.077Z,0.00
2023-12-21T20:03:49.916Z,0.20
2023-12-21T20:06:16.675Z,0.30
2023-12-21T20:08:43.489Z,0.20
2023-12-21T20:11:10.331Z,0.00
2023-12-21T20:13:37.152Z,-0.10
2023-12-21T20:16:03.996Z,-0.10
2023-12-21T20:18:30.862Z,0.00
2023-12-21T20:20:57.677Z,0.10
2023-12-21T20:23:24.486Z,-0.40
2023-12-21T20:25:51.411Z,-0.40
2023-12-21T20:28:18.517Z,-0.40
2023-12-21T20:31:23.250Z,-0.80
2023-12-21T20:33:50.125Z,-0.50
2023-12-21T20:36:27.211Z,-0.40
2023-12-21T20:38:54.229Z,-0.40
2023-12-21T20:41:21.259Z,-0.40
2023-12-21T20:43:49.765Z,-0.60
2023-12-21T20:46:16.782Z,-0.70
2023-12-21T20:48:43.596Z,-0.60
2023-12-21T20:51:10.761Z,-0.50
2023-12-21T20:53:37.494Z,-0.50
2023-12-21T20:56:04.662Z,-0.50
2023-12-21T20:58:32.646Z,-0.30
2023-12-21T21:01:01.979Z,-0.60
2023-12-21T21:03:28.837Z,-0.50
2023-12-21T21:05:55.756Z,-0.50
2023-12-21T21:08:22.700Z,-0.60
2023-12-21T21:10:49.612Z,-0.50
2023-12-21T21:13:16.687Z,-0.50
2023-12-21T21:15:43.522Z,-0.70
2023-12-21T21:18:11.531Z,-0.60
2023-12-21T21:20:38.518Z,-0.50
2023-12-21T21:23:05.275Z,-0.40
2023-12-21T21:25:32.102Z,-0.50
2023-12-21T21:27:58.973Z,-0.70
2023-12-21T21:30:55.358Z,-0.60
2023-12-21T21:33:45.724Z,-0.40
2023-12-21T21:36:13.837Z,-0.70
2023-12-21T21:39:01.752Z,-0.60
2023-12-21T21:41:28.497Z,-0.70
2023-12-21T21:43:55.300Z,-0.70
2023-12-21T21:46:22.089Z,-0.60
2023-12-21T21:48:49.004Z,-0.60
2023-12-21T21:51:18.192Z,-0.70
2023-12-21T21:53:45.284Z,-0.70
2023-12-21T21:56:12.638Z,-0.50
2023-12-21T21:58:39.642Z,-0.60
2023-12-21T22:01:06.981Z,-0.70
2023-12-21T22:03:35.054Z,-0.80
2023-12-21T22:06:03.029Z,-0.90
2023-12-21T22:08:30.333Z,-0.80
2023-12-21T22:10:58.370Z,-0.60
2023-12-21T22:13:26.713Z,-0.70
2023-12-21T22:15:57.716Z,-0.80
2023-12-21T22:18:24.712Z,-0.60
2023-12-21T22:20:51.763Z,-0.50
2023-12-21T22:23:18.654Z,-0.40
2023-12-21T22:26:09.222Z,-0.30
2023-12-21T22:28:36.000Z,-0.40
2023-12-21T22:31:03.263Z,-0.30
2023-12-21T22:33:30.796Z,-0.20
2023-12-21T22:35:57.654Z,-0.10
2023-12-21T22:38:24.504Z,0.00
2023-12-21T22:40:51.391Z,0.00
2023-12-21T22:43:29.791Z,-0.10
2023-12-21T22:46:05.118Z,-0.30
2023-12-21T22:48:32.187Z,-0.50
2023-12-21T22:50:59.120Z,-0.40
2023-12-21T22:53:25.902Z,-0.40
2023-12-21T22:55:52.808Z,-0.20
2023-12-21T22:58:19.964Z,0.00
2023-12-21T23:00:46.935Z,0.10
2023-12-21T23:03:13.808Z,0.00
2023-12-21T23:05:42.516Z,0.00
2023-12-21T23:08:09.911Z,0.20
2023-12-21T23:10:36.814Z,0.20
2023-12-21T23:16:26.022Z,0.00
2023-12-21T23:18:52.945Z,-0.10
2023-12-21T23:21:19.911Z,-0.10
2023-12-21T23:23:46.670Z,0.00
2023-12-21T23:26:13.539Z,0.10
2023-12-21T23:28:40.340Z,0.20
2023-12-21T23:31:07.092Z,0.30
2023-12-21T23:33:33.937Z,0.20
2023-12-21T23:36:00.800Z,0.40
2023-12-21T23:38:29.276Z,0.40
2023-12-21T23:41:02.830Z,0.70
2023-12-21T23:43:29.735Z,0.70
2023-12-21T23:45:56.547Z,2.20
2023-12-21T23:48:23.340Z,2.60
2023-12-21T23:50:50.133Z,3.90
2023-12-21T23:53:16.867Z,4.80
2023-12-21T23:55:43.680Z,5.50
2023-12-21T23:58:10.437Z,5.20
